Flight Track Log - Related Links

Times and Time Zones

All times are in EST time to prevent confusion due to time zone crossing. See the AMF1324 flight status page for this flight to view local times or setup timezone preferences in your user account.


Time Position Orientation Groundspeed Altitude Reporting Facility
EST Latitude Longitude Course Direction KTS MPH feet Rate Location/Type
Wed 06:38:56 AM 42.9333 -78.7333 200° South 158 182 1,300  Level Buffalo TRACON
Wed 06:39:44 AM 42.9000 -78.7500 200° South 185 213 3,200 2,195 Climbing Buffalo TRACON
Wed 06:40:59 AM 42.8744 -78.6683 113° Southeast 203 234 5,800 1,853 Climbing Cleveland Center
Wed 06:42:00 AM 42.8633 -78.5894 101° East 218 251 7,400 1,512 Climbing Cleveland Center
Wed 06:43:02 AM 42.8489 -78.5025 103° East 225 259 8,900 1,317 Climbing Cleveland Center
Wed 06:44:03 AM 42.8342 -78.4272 105° East 228 262 10,100 1,377 Climbing Cleveland Center
Wed 06:45:04 AM 42.8211 -78.3436 102° East 225 259 11,700 1,426 Climbing Cleveland Center
Wed 06:46:05 AM 42.8075 -78.2483 101° East 214 246 13,000 634 Climbing Cleveland Center
Wed 06:47:07 AM 42.7964 -78.1564 99° East 246 283 13,000  Level Cleveland Center
Wed 06:48:08 AM 42.7925 -78.0619 93° East 251 289 13,000  Level Cleveland Center
Wed 06:49:10 AM 42.7933 -77.9678 89° East 249 287 13,000  Level Cleveland Center
Wed 06:50:11 AM 42.8011 -77.8747 83° East 246 283 13,000  Level Cleveland Center
Wed 06:51:13 AM 42.8089 -77.7825 83° East 245 282 13,000  Level Cleveland Center
Wed 06:52:14 AM 42.8131 -77.6903 86° East 248 285 13,000  Level Cleveland Center
Wed 06:53:16 AM 42.7767 -77.5983 118° Southeast 273 314 13,000  Level Cleveland Center
Wed 06:54:17 AM 42.7431 -77.5053 116° Southeast 270 311 13,000  Level Cleveland Center
Wed 06:55:18 AM 42.7094 -77.4133 116° Southeast 269 310 13,000  Level Cleveland Center
Wed 06:56:20 AM 42.6744 -77.3214 117° Southeast 271 312 13,000  Level Cleveland Center
Wed 06:57:21 AM 42.6361 -77.2319 120° Southeast 273 314 13,000  Level Cleveland Center
Wed 06:58:23 AM 42.5947 -77.1433 122° Southeast 276 318 13,000  Level Cleveland Center
Wed 06:59:24 AM 42.5450 -77.0364 122° Southeast 280 322 13,000  Level Cleveland Center
Wed 07:00:26 AM 42.5050 -76.9472 121° Southeast 278 320 13,000  Level Cleveland Center
Wed 07:01:27 AM 42.4653 -76.8569 121° Southeast 280 322 13,000 -341 Level Cleveland Center
Wed 07:02:29 AM 42.4261 -76.7656 120° Southeast 280 322 12,300 -732 Descending Cleveland Center
Wed 07:03:30 AM 42.3842 -76.6686 120° Southeast 294 338 11,500 -836 Descending Cleveland Center
Wed 07:04:31 AM 42.3453 -76.5706 118° Southeast 297 342 10,600 -1,024 Descending Cleveland Center
Wed 07:05:33 AM 42.3053 -76.4703 118° Southeast 301 346 9,400 -1,171 Descending Cleveland Center
Wed 07:06:34 AM 42.2672 -76.3731 118° Southeast 293 337 8,200 -1,122 Descending Cleveland Center
Wed 07:07:36 AM 42.2483 -76.2800 105° East 261 300 7,100 -1,561 Descending Cleveland Center
Wed 07:08:37 AM 42.2306 -76.1678 102° East 255 293 5,000 -1,317 Descending Cleveland Center
Wed 07:09:39 AM 42.2150 -76.0894 105° East 254 292 4,400 -777 Descending Cleveland Center
Wed 07:10:56 AM 42.1617 -76.0136 133° Southeast 207 238 3,200 -701 Descending New York Center
Wed 07:11:56 AM 42.1511 -75.9681 107° East 166 191 2,800 -400 Descending New York Center
Wed 07:12:56 AM 42.1567 -75.9347 77° East 114 131 2,400 -400 Descending New York Center

Login

Don't have an account? Register now (free) for customized features, flight alerts, and more!